sensor_id;sensor_type;location;lat;lon;timestamp;temperature;humidity
10010;DHT22;5044;48.652;9.250;2024-02-04T01:20:57;6.00;99.90
10010;DHT22;5044;48.652;9.250;2024-02-04T01:28:35;6.00;99.90
10010;DHT22;5044;48.652;9.250;2024-02-04T01:38:37;6.00;99.90
10010;DHT22;5044;48.652;9.250;2024-02-04T01:48:45;5.90;99.90
10010;DHT22;5044;48.652;9.250;2024-02-04T01:51:14;5.90;99.90
10010;DHT22;5044;48.652;9.250;2024-02-04T01:53:46;5.90;99.90
10010;DHT22;5044;48.652;9.250;2024-02-04T02:04:00;5.70;99.90
10010;DHT22;5044;48.652;9.250;2024-02-04T02:06:28;5.70;99.90
10010;DHT22;5044;48.652;9.250;2024-02-04T02:08:59;5.70;99.90
10010;DHT22;5044;48.652;9.250;2024-02-04T02:11:35;5.70;99.90
10010;DHT22;5044;48.652;9.250;2024-02-04T02:14:05;5.70;99.90
10010;DHT22;5044;48.652;9.250;2024-02-04T02:16:34;5.70;99.90
10010;DHT22;5044;48.652;9.250;2024-02-04T02:19:08;5.80;99.90
10010;DHT22;5044;48.652;9.250;2024-02-04T02:21:50;5.80;99.90
10010;DHT22;5044;48.652;9.250;2024-02-04T02:24:31;5.80;99.90
10010;DHT22;5044;48.652;9.250;2024-02-04T02:27:00;5.80;99.90
10010;DHT22;5044;48.652;9.250;2024-02-04T02:29:27;5.80;99.90
10010;DHT22;5044;48.652;9.250;2024-02-04T02:31:54;5.80;99.90
10010;DHT22;5044;48.652;9.250;2024-02-04T02:34:22;5.90;99.90
10010;DHT22;5044;48.652;9.250;2024-02-04T02:36:55;5.80;99.90
10010;DHT22;5044;48.652;9.250;2024-02-04T02:39:29;5.80;99.90
10010;DHT22;5044;48.652;9.250;2024-02-04T02:42:03;5.90;99.90
10010;DHT22;5044;48.652;9.250;2024-02-04T02:44:33;5.90;99.90
10010;DHT22;5044;48.652;9.250;2024-02-04T02:47:03;5.90;99.90
10010;DHT22;5044;48.652;9.250;2024-02-04T02:49:33;5.90;99.90
10010;DHT22;5044;48.652;9.250;2024-02-04T02:52:00;6.00;99.90
10010;DHT22;5044;48.652;9.250;2024-02-04T02:54:29;6.00;99.90
10010;DHT22;5044;48.652;9.250;2024-02-04T02:56:56;6.00;99.90
10010;DHT22;5044;48.652;9.250;2024-02-04T02:59:24;6.00;99.90
10010;DHT22;5044;48.652;9.250;2024-02-04T03:01:51;6.00;99.90
10010;DHT22;5044;48.652;9.250;2024-02-04T03:04:18;6.00;99.90
10010;DHT22;5044;48.652;9.250;2024-02-04T03:06:45;6.10;99.90
10010;DHT22;5044;48.652;9.250;2024-02-04T03:09:14;6.10;99.90
10010;DHT22;5044;48.652;9.250;2024-02-04T03:11:57;6.00;99.90
10010;DHT22;5044;48.652;9.250;2024-02-04T03:14:27;6.00;99.90
10010;DHT22;5044;48.652;9.250;2024-02-04T03:17:00;6.00;99.90
10010;DHT22;5044;48.652;9.250;2024-02-04T03:19:27;6.00;99.90
10010;DHT22;5044;48.652;9.250;2024-02-04T03:21:55;6.00;99.90
10010;DHT22;5044;48.652;9.250;2024-02-04T03:26:59;6.10;99.90
10010;DHT22;5044;48.652;9.250;2024-02-04T03:29:26;6.10;99.90
10010;DHT22;5044;48.652;9.250;2024-02-04T03:34:24;6.10;99.90
10010;DHT22;5044;48.652;9.250;2024-02-04T03:36:51;6.20;99.90
10010;DHT22;5044;48.652;9.250;2024-02-04T03:39:18;6.00;99.90
10010;DHT22;5044;48.652;9.250;2024-02-04T03:41:46;6.10;99.90
10010;DHT22;5044;48.652;9.250;2024-02-04T03:44:15;6.00;99.90
10010;DHT22;5044;48.652;9.250;2024-02-04T03:46:42;6.10;99.90
10010;DHT22;5044;48.652;9.250;2024-02-04T03:49:09;6.00;99.90
10010;DHT22;5044;48.652;9.250;2024-02-04T03:51:36;6.30;99.90
10010;DHT22;5044;48.652;9.250;2024-02-04T03:54:03;6.00;99.90
10010;DHT22;5044;48.652;9.250;2024-02-04T03:56:31;6.00;99.90
10010;DHT22;5044;48.652;9.250;2024-02-04T04:01:47;6.00;99.90
10010;DHT22;5044;48.652;9.250;2024-02-04T04:04:14;6.10;99.90
10010;DHT22;5044;48.652;9.250;2024-02-04T04:06:43;6.00;99.90
10010;DHT22;5044;48.652;9.250;2024-02-04T04:09:10;6.00;99.90
10010;DHT22;5044;48.652;9.250;2024-02-04T04:11:38;6.20;99.90
10010;DHT22;5044;48.652;9.250;2024-02-04T04:14:05;6.00;99.90
10010;DHT22;5044;48.652;9.250;2024-02-04T04:16:32;6.00;99.90
10010;DHT22;5044;48.652;9.250;2024-02-04T04:19:01;6.10;99.90
10010;DHT22;5044;48.652;9.250;2024-02-04T04:26:40;6.00;99.90
10010;DHT22;5044;48.652;9.250;2024-02-04T04:29:10;6.00;99.90
10010;DHT22;5044;48.652;9.250;2024-02-04T04:31:37;5.90;99.90
10010;DHT22;5044;48.652;9.250;2024-02-04T04:34:10;5.90;99.90
10010;DHT22;5044;48.652;9.250;2024-02-04T04:36:39;5.90;99.90
10010;DHT22;5044;48.652;9.250;2024-02-04T04:39:06;5.90;99.90
10010;DHT22;5044;48.652;9.250;2024-02-04T04:41:35;5.90;99.90
10010;DHT22;5044;48.652;9.250;2024-02-04T04:44:03;5.90;99.90
10010;DHT22;5044;48.652;9.250;2024-02-04T04:46:30;5.90;99.90
10010;DHT22;5044;48.652;9.250;2024-02-04T04:48:57;5.80;99.90
10010;DHT22;5044;48.652;9.250;2024-02-04T04:51:27;5.80;99.90
10010;DHT22;5044;48.652;9.250;2024-02-04T04:56:29;5.80;99.90
10010;DHT22;5044;48.652;9.250;2024-02-04T04:58:56;5.80;99.90
10010;DHT22;5044;48.652;9.250;2024-02-04T05:01:23;5.70;99.90
10010;DHT22;5044;48.652;9.250;2024-02-04T05:03:50;5.80;99.90
10010;DHT22;5044;48.652;9.250;2024-02-04T05:06:20;5.80;99.90
10010;DHT22;5044;48.652;9.250;2024-02-04T05:08:49;5.80;99.90
10010;DHT22;5044;48.652;9.250;2024-02-04T05:11:17;5.80;99.90
10010;DHT22;5044;48.652;9.250;2024-02-04T05:13:45;5.80;99.90
10010;DHT22;5044;48.652;9.250;2024-02-04T05:16:13;5.80;99.90
10010;DHT22;5044;48.652;9.250;2024-02-04T05:19:05;5.70;99.90
10010;DHT22;5044;48.652;9.250;2024-02-04T05:21:32;5.70;99.90
10010;DHT22;5044;48.652;9.250;2024-02-04T05:24:01;5.70;99.90
10010;DHT22;5044;48.652;9.250;2024-02-04T05:26:28;5.70;99.90
10010;DHT22;5044;48.652;9.250;2024-02-04T05:28:56;6.00;99.90
10010;DHT22;5044;48.652;9.250;2024-02-04T05:31:23;5.70;99.90
10010;DHT22;5044;48.652;9.250;2024-02-04T05:33:52;6.10;99.90
10010;DHT22;5044;48.652;9.250;2024-02-04T05:36:21;5.80;99.90
10010;DHT22;5044;48.652;9.250;2024-02-04T05:38:48;5.70;99.90
10010;DHT22;5044;48.652;9.250;2024-02-04T05:41:16;5.80;99.90
10010;DHT22;5044;48.652;9.250;2024-02-04T05:43:43;5.80;99.90
10010;DHT22;5044;48.652;9.250;2024-02-04T05:46:14;6.30;99.90
10010;DHT22;5044;48.652;9.250;2024-02-04T05:48:43;5.70;99.90
10010;DHT22;5044;48.652;9.250;2024-02-04T05:51:11;5.80;99.90
10010;DHT22;5044;48.652;9.250;2024-02-04T05:53:39;5.80;99.90
10010;DHT22;5044;48.652;9.250;2024-02-04T05:56:07;5.80;99.90
10010;DHT22;5044;48.652;9.250;2024-02-04T05:58:34;5.80;99.90
10010;DHT22;5044;48.652;9.250;2024-02-04T06:01:02;5.80;99.90
10010;DHT22;5044;48.652;9.250;2024-02-04T06:03:30;5.80;99.90
10010;DHT22;5044;48.652;9.250;2024-02-04T06:05:58;5.80;99.90
10010;DHT22;5044;48.652;9.250;2024-02-04T06:08:30;5.70;99.90
10010;DHT22;5044;48.652;9.250;2024-02-04T06:11:10;5.70;99.90
10010;DHT22;5044;48.652;9.250;2024-02-04T06:13:38;5.70;99.90
10010;DHT22;5044;48.652;9.250;2024-02-04T06:16:06;5.70;99.90
10010;DHT22;5044;48.652;9.250;2024-02-04T06:18:35;5.70;99.90
10010;DHT22;5044;48.652;9.250;2024-02-04T06:21:04;5.70;99.90
10010;DHT22;5044;48.652;9.250;2024-02-04T06:23:32;5.70;99.90
10010;DHT22;5044;48.652;9.250;2024-02-04T06:26:03;5.60;99.90
10010;DHT22;5044;48.652;9.250;2024-02-04T06:28:36;5.60;99.90
10010;DHT22;5044;48.652;9.250;2024-02-04T06:31:08;5.60;99.90
10010;DHT22;5044;48.652;9.250;2024-02-04T06:33:36;5.60;99.90
10010;DHT22;5044;48.652;9.250;2024-02-04T06:36:08;5.60;99.90
10010;DHT22;5044;48.652;9.250;2024-02-04T06:38:35;5.60;99.90
10010;DHT22;5044;48.652;9.250;2024-02-04T06:41:03;5.60;99.90
10010;DHT22;5044;48.652;9.250;2024-02-04T06:43:32;5.60;99.90
10010;DHT22;5044;48.652;9.250;2024-02-04T06:45:59;5.90;99.90
10010;DHT22;5044;48.652;9.250;2024-02-04T06:48:25;5.60;99.90
10010;DHT22;5044;48.652;9.250;2024-02-04T06:50:52;5.70;99.90
10010;DHT22;5044;48.652;9.250;2024-02-04T06:53:19;5.60;99.90
10010;DHT22;5044;48.652;9.250;2024-02-04T06:55:46;5.60;99.90
10010;DHT22;5044;48.652;9.250;2024-02-04T06:58:13;5.60;99.90
10010;DHT22;5044;48.652;9.250;2024-02-04T07:00:42;5.60;99.90
10010;DHT22;5044;48.652;9.250;2024-02-04T07:03:09;5.70;99.90
10010;DHT22;5044;48.652;9.250;2024-02-04T07:05:36;5.70;99.90
10010;DHT22;5044;48.652;9.250;2024-02-04T07:08:04;5.70;99.90
10010;DHT22;5044;48.652;9.250;2024-02-04T07:10:31;5.70;99.90
10010;DHT22;5044;48.652;9.250;2024-02-04T07:12:58;5.70;99.90
10010;DHT22;5044;48.652;9.250;2024-02-04T07:15:25;6.00;99.90
10010;DHT22;5044;48.652;9.250;2024-02-04T07:17:53;6.20;99.90
10010;DHT22;5044;48.652;9.250;2024-02-04T07:20:20;5.70;99.90
10010;DHT22;5044;48.652;9.250;2024-02-04T07:22:47;5.70;99.90
10010;DHT22;5044;48.652;9.250;2024-02-04T07:25:14;5.70;99.90
10010;DHT22;5044;48.652;9.250;2024-02-04T07:27:41;5.70;99.90
10010;DHT22;5044;48.652;9.250;2024-02-04T07:30:08;5.70;99.90
10010;DHT22;5044;48.652;9.250;2024-02-04T07:32:38;5.80;99.90
10010;DHT22;5044;48.652;9.250;2024-02-04T07:35:07;5.80;99.90
10010;DHT22;5044;48.652;9.250;2024-02-04T07:37:35;5.80;99.90
10010;DHT22;5044;48.652;9.250;2024-02-04T07:40:16;5.80;99.90
10010;DHT22;5044;48.652;9.250;2024-02-04T11:06:57;10.00;99.90
10010;DHT22;5044;48.652;9.250;2024-02-04T12:40:48;11.40;96.50
10010;DHT22;5044;48.652;9.250;2024-02-04T12:43:24;11.30;97.10
10010;DHT22;5044;48.652;9.250;2024-02-04T12:46:00;11.40;96.60
10010;DHT22;5044;48.652;9.250;2024-02-04T12:58:47;11.90;97.20
10010;DHT22;5044;48.652;9.250;2024-02-04T13:01:16;11.90;96.50
10010;DHT22;5044;48.652;9.250;2024-02-04T13:03:44;11.90;94.80
10010;DHT22;5044;48.652;9.250;2024-02-04T13:06:12;11.90;96.10
10010;DHT22;5044;48.652;9.250;2024-02-04T13:08:40;11.90;94.80
